createdAt,value
2017-01-18T00:00:32.649Z,0
2017-01-18T00:01:44.260Z,0
2017-01-18T00:02:55.688Z,0
2017-01-18T00:04:07.294Z,0
2017-01-18T00:05:18.697Z,0
2017-01-18T00:06:30.144Z,0
2017-01-18T00:07:41.754Z,0
2017-01-18T00:08:53.159Z,0
2017-01-18T00:10:04.564Z,0
2017-01-18T00:11:15.997Z,0
2017-01-18T00:12:27.656Z,0
2017-01-18T00:13:39.257Z,0
2017-01-18T00:14:50.664Z,0
2017-01-18T00:16:02.070Z,0
2017-01-18T00:17:13.467Z,0
2017-01-18T00:18:24.920Z,0
2017-01-18T00:19:36.326Z,0
2017-01-18T00:20:47.730Z,0
2017-01-18T00:21:59.133Z,0
2017-01-18T00:23:10.539Z,0
2017-01-18T00:24:21.986Z,0
2017-01-18T00:25:33.418Z,0
2017-01-18T00:26:44.824Z,0
2017-01-18T00:27:56.224Z,0
2017-01-18T00:29:07.622Z,0
2017-01-18T00:30:19.271Z,0
2017-01-18T00:31:30.689Z,0
2017-01-18T00:32:42.299Z,0
2017-01-18T00:33:53.703Z,0
2017-01-18T00:35:05.100Z,0
2017-01-18T00:36:16.551Z,0
2017-01-18T00:37:27.959Z,0
2017-01-18T00:38:39.354Z,0
2017-01-18T00:39:50.957Z,0
2017-01-18T00:41:02.562Z,0
2017-01-18T00:42:14.008Z,0
2017-01-18T00:43:25.621Z,0
2017-01-18T00:44:37.227Z,0
2017-01-18T00:45:48.656Z,0
2017-01-18T00:47:00.059Z,0
2017-01-18T00:48:11.520Z,0
2017-01-18T00:49:23.129Z,0
2017-01-18T00:50:34.540Z,0
2017-01-18T00:51:45.948Z,0
2017-01-18T00:52:57.352Z,0
2017-01-18T00:54:08.801Z,0
2017-01-18T00:55:20.198Z,0
2017-01-18T00:56:31.804Z,0
2017-01-18T00:57:43.209Z,0
2017-01-18T00:58:54.621Z,0
2017-01-18T01:00:06.081Z,0
2017-01-18T01:01:17.675Z,0
2017-01-18T01:02:29.077Z,0
2017-01-18T01:03:40.489Z,0
2017-01-18T01:04:51.890Z,0
2017-01-18T01:06:03.363Z,0
2017-01-18T01:07:14.765Z,0
2017-01-18T01:08:26.162Z,0
2017-01-18T01:09:37.572Z,0
2017-01-18T01:10:49.181Z,0
2017-01-18T01:12:00.835Z,0
2017-01-18T01:13:12.445Z,0
2017-01-18T01:14:23.844Z,0
2017-01-18T01:15:35.254Z,0
2017-01-18T01:16:46.658Z,0
2017-01-18T01:17:58.116Z,0
2017-01-18T01:19:09.526Z,0
2017-01-18T01:20:20.937Z,0
2017-01-18T01:21:32.339Z,0
2017-01-18T01:22:43.733Z,0
2017-01-18T01:23:55.584Z,0
2017-01-18T01:25:06.998Z,0
2017-01-18T01:26:18.390Z,0
2017-01-18T01:27:29.787Z,0
2017-01-18T01:28:41.396Z,0
2017-01-18T01:29:53.049Z,0
2017-01-18T01:31:04.487Z,0
2017-01-18T01:32:15.893Z,0
2017-01-18T01:33:27.698Z,0
2017-01-18T01:34:39.106Z,0
2017-01-18T01:35:50.759Z,0
2017-01-18T01:37:02.167Z,0
2017-01-18T01:38:13.575Z,0
2017-01-18T01:39:25.010Z,0
2017-01-18T01:40:36.416Z,0
2017-01-18T01:41:47.897Z,0
2017-01-18T01:42:59.304Z,0
2017-01-18T01:44:10.731Z,0
2017-01-18T01:45:22.135Z,0
2017-01-18T01:46:33.747Z,0
2017-01-18T01:47:45.204Z,0
2017-01-18T01:48:56.609Z,0
2017-01-18T01:50:08.215Z,0
2017-01-18T01:51:19.618Z,0
2017-01-18T01:52:31.024Z,0
2017-01-18T01:53:42.485Z,0
2017-01-18T01:54:53.885Z,0
2017-01-18T01:56:05.279Z,0
2017-01-18T01:57:16.674Z,0
2017-01-18T01:58:28.078Z,0
2017-01-18T01:59:39.540Z,0
2017-01-18T02:00:50.940Z,0
2017-01-18T02:02:02.544Z,0
2017-01-18T02:03:13.948Z,0
2017-01-18T02:04:25.353Z,0
2017-01-18T02:05:36.814Z,0
2017-01-18T02:06:48.222Z,0
2017-01-18T02:07:59.620Z,0
2017-01-18T02:09:11.045Z,0
2017-01-18T02:10:22.454Z,0
2017-01-18T02:11:33.915Z,0
2017-01-18T02:12:45.318Z,0
2017-01-18T02:13:56.741Z,0
2017-01-18T02:15:08.150Z,0
2017-01-18T02:16:19.755Z,0
2017-01-18T02:17:31.612Z,0
2017-01-18T02:18:43.041Z,0
2017-01-18T02:19:54.456Z,0
2017-01-18T02:21:06.461Z,0
2017-01-18T02:22:17.872Z,0
2017-01-18T02:23:29.526Z,0
2017-01-18T02:24:40.930Z,0
2017-01-18T02:25:52.338Z,0
2017-01-18T02:27:03.746Z,0
2017-01-18T02:28:15.157Z,0
2017-01-18T02:29:26.615Z,0
2017-01-18T02:30:38.023Z,0
2017-01-18T02:31:49.433Z,0
2017-01-18T02:33:00.844Z,0
2017-01-18T02:34:12.254Z,0
2017-01-18T02:35:23.711Z,0
2017-01-18T02:36:35.120Z,0
2017-01-18T02:37:46.921Z,0
2017-01-18T02:38:58.346Z,0
2017-01-18T02:40:09.745Z,0
2017-01-18T02:41:21.194Z,0
2017-01-18T02:42:32.596Z,0
2017-01-18T02:43:44.008Z,0
2017-01-18T02:44:55.421Z,0
2017-01-18T02:46:06.816Z,0
2017-01-18T02:47:18.271Z,0
2017-01-18T02:48:29.879Z,0
2017-01-18T02:49:41.283Z,0
2017-01-18T02:50:52.690Z,0
2017-01-18T02:52:04.294Z,0
2017-01-18T02:53:15.953Z,0
2017-01-18T02:54:27.366Z,0
2017-01-18T02:55:38.773Z,0
2017-01-18T02:56:50.171Z,0
2017-01-18T02:58:01.776Z,0
2017-01-18T02:59:13.435Z,0
2017-01-18T03:00:24.835Z,0
2017-01-18T03:01:36.242Z,0
2017-01-18T03:02:47.650Z,0
2017-01-18T03:03:59.055Z,0
2017-01-18T03:05:10.525Z,0
2017-01-18T03:06:21.936Z,0
2017-01-18T03:07:33.342Z,0
2017-01-18T03:08:45.150Z,0
2017-01-18T03:09:56.754Z,0
2017-01-18T03:11:08.202Z,0
2017-01-18T03:12:19.609Z,0
2017-01-18T03:13:31.220Z,0
2017-01-18T03:14:42.620Z,0
2017-01-18T03:15:54.027Z,0
2017-01-18T03:17:05.488Z,0
2017-01-18T03:18:16.898Z,0
2017-01-18T03:19:28.302Z,0
2017-01-18T03:20:39.712Z,0
2017-01-18T03:21:51.121Z,0
2017-01-18T03:23:02.777Z,0
2017-01-18T03:24:14.175Z,0
2017-01-18T03:25:25.813Z,0
2017-01-18T03:26:37.425Z,0
2017-01-18T03:27:48.834Z,0
2017-01-18T03:29:00.284Z,0
2017-01-18T03:30:11.693Z,0
2017-01-18T03:31:23.092Z,0
2017-01-18T03:32:34.499Z,0
2017-01-18T03:33:45.905Z,0
2017-01-18T03:34:57.362Z,0
2017-01-18T03:36:08.769Z,0
2017-01-18T03:37:20.172Z,0
2017-01-18T03:38:31.777Z,0
2017-01-18T03:39:43.181Z,0
2017-01-18T03:40:54.627Z,0
2017-01-18T03:42:06.236Z,0
2017-01-18T03:43:18.052Z,0
2017-01-18T03:44:29.453Z,0
2017-01-18T03:45:41.059Z,0
2017-01-18T03:46:52.520Z,0
2017-01-18T03:48:04.125Z,0
2017-01-18T03:49:15.532Z,0
2017-01-18T03:50:27.137Z,0
2017-01-18T03:51:38.548Z,0
2017-01-18T03:52:50.005Z,0
2017-01-18T03:54:01.403Z,0
2017-01-18T03:55:12.802Z,0
2017-01-18T03:56:24.202Z,0
2017-01-18T03:57:35.609Z,0
2017-01-18T03:58:47.070Z,0
2017-01-18T03:59:58.476Z,0
2017-01-18T04:01:09.877Z,0
2017-01-18T04:02:21.514Z,0
2017-01-18T04:03:32.928Z,0
2017-01-18T04:04:44.380Z,0
2017-01-18T04:05:55.791Z,0
2017-01-18T04:07:07.202Z,0
2017-01-18T04:08:18.603Z,0
2017-01-18T04:09:30.033Z,0
2017-01-18T04:10:41.481Z,0
2017-01-18T04:11:52.892Z,0
2017-01-18T04:13:04.296Z,0
2017-01-18T04:14:15.693Z,0
2017-01-18T04:15:27.095Z,0
2017-01-18T04:16:38.558Z,0
2017-01-18T04:17:49.965Z,0
2017-01-18T04:19:01.372Z,0
2017-01-18T04:20:12.975Z,0
2017-01-18T04:21:24.379Z,0
2017-01-18T04:22:35.837Z,0
2017-01-18T04:23:47.472Z,0
2017-01-18T04:24:58.873Z,0
2017-01-18T04:26:10.271Z,0
2017-01-18T04:27:21.676Z,0
2017-01-18T04:28:33.132Z,0
2017-01-18T04:29:44.541Z,0
2017-01-18T04:30:55.950Z,0
2017-01-18T04:32:07.357Z,0
2017-01-18T04:33:18.760Z,0
2017-01-18T04:34:30.208Z,0
2017-01-18T04:35:41.620Z,0
2017-01-18T04:36:53.025Z,0
2017-01-18T04:38:04.438Z,0
2017-01-18T04:39:15.849Z,0
2017-01-18T04:40:27.299Z,0
2017-01-18T04:41:38.901Z,0
2017-01-18T04:42:50.312Z,0
2017-01-18T04:44:01.718Z,0
2017-01-18T04:45:13.112Z,0
2017-01-18T04:46:24.570Z,0
2017-01-18T04:47:35.978Z,0
2017-01-18T04:48:47.418Z,0
2017-01-18T04:49:58.823Z,0
2017-01-18T04:51:10.229Z,0
2017-01-18T04:52:21.679Z,0
2017-01-18T04:53:33.097Z,0
2017-01-18T04:54:44.504Z,0
2017-01-18T04:55:56.103Z,0
2017-01-18T04:57:07.510Z,0
2017-01-18T04:58:18.965Z,0
2017-01-18T04:59:30.374Z,0
2017-01-18T05:00:41.973Z,0
2017-01-18T05:01:53.377Z,0
2017-01-18T05:03:04.782Z,0
2017-01-18T05:04:16.237Z,0
2017-01-18T05:05:27.644Z,0
2017-01-18T05:06:39.054Z,0
2017-01-18T05:07:50.462Z,0
2017-01-18T05:09:01.868Z,0
2017-01-18T05:10:13.328Z,0
2017-01-18T05:11:24.732Z,0
2017-01-18T05:12:36.137Z,0
2017-01-18T05:13:47.547Z,0
2017-01-18T05:14:58.952Z,0
2017-01-18T05:16:10.625Z,0
2017-01-18T05:17:22.020Z,0
2017-01-18T05:18:33.426Z,0
2017-01-18T05:19:44.859Z,0
2017-01-18T05:20:56.297Z,0
2017-01-18T05:22:07.955Z,0
2017-01-18T05:23:19.766Z,0
2017-01-18T05:24:31.171Z,0
2017-01-18T05:25:42.764Z,0
2017-01-18T05:26:54.168Z,0
2017-01-18T05:28:05.621Z,0
2017-01-18T05:29:17.027Z,0
2017-01-18T05:30:28.438Z,0
2017-01-18T05:31:39.848Z,0
2017-01-18T05:32:51.252Z,0
2017-01-18T05:34:02.715Z,0
2017-01-18T05:35:14.139Z,0
2017-01-18T05:36:25.742Z,0
2017-01-18T05:37:37.154Z,0
2017-01-18T05:38:48.558Z,0
2017-01-18T05:40:00.013Z,0
2017-01-18T05:41:11.623Z,0
2017-01-18T05:42:23.045Z,0
2017-01-18T05:43:34.645Z,0
2017-01-18T05:44:46.047Z,0
2017-01-18T05:45:57.499Z,0
2017-01-18T05:47:08.904Z,0
2017-01-18T05:48:20.309Z,0
2017-01-18T05:49:31.711Z,0
2017-01-18T05:50:43.111Z,0
2017-01-18T05:51:54.600Z,0
2017-01-18T05:53:06.006Z,0
2017-01-18T05:54:17.402Z,0
2017-01-18T05:55:28.805Z,0
2017-01-18T05:56:40.404Z,0
2017-01-18T05:57:52.055Z,0
2017-01-18T05:59:03.462Z,0
2017-01-18T06:00:14.866Z,0
2017-01-18T06:01:26.278Z,0
2017-01-18T06:02:37.670Z,0
2017-01-18T06:03:49.114Z,0
2017-01-18T06:05:00.515Z,0
2017-01-18T06:06:11.917Z,0
2017-01-18T06:07:23.526Z,0
2017-01-18T06:08:34.929Z,0
2017-01-18T06:09:46.380Z,0
2017-01-18T06:10:57.784Z,0
2017-01-18T06:12:09.187Z,0
2017-01-18T06:13:20.599Z,0
2017-01-18T06:14:32.412Z,0
2017-01-18T06:15:43.864Z,0
2017-01-18T06:16:55.272Z,0
2017-01-18T06:18:06.703Z,0
2017-01-18T06:19:18.118Z,0
2017-01-18T06:20:29.725Z,0
2017-01-18T06:21:41.149Z,0
2017-01-18T06:22:52.553Z,0
2017-01-18T06:24:03.960Z,0
2017-01-18T06:25:15.371Z,0
2017-01-18T06:26:26.852Z,0
2017-01-18T06:27:38.261Z,0
2017-01-18T06:28:49.662Z,0
2017-01-18T06:30:01.064Z,0
2017-01-18T06:31:12.667Z,0
2017-01-18T06:32:24.118Z,0
2017-01-18T06:33:35.521Z,0
2017-01-18T06:34:47.131Z,0
2017-01-18T06:35:58.528Z,0
2017-01-18T06:37:10.134Z,0
2017-01-18T06:38:21.586Z,0
2017-01-18T06:39:32.987Z,0
2017-01-18T06:40:44.396Z,0
2017-01-18T06:41:55.805Z,0
2017-01-18T06:43:07.207Z,0
2017-01-18T06:44:18.664Z,0
2017-01-18T06:45:30.066Z,4
2017-01-18T06:46:41.476Z,0
2017-01-18T06:47:52.887Z,4
2017-01-18T06:49:04.301Z,4
2017-01-18T06:50:15.755Z,4
2017-01-18T06:51:27.364Z,0
2017-01-18T06:52:38.770Z,4
2017-01-18T06:53:50.174Z,4
2017-01-18T06:55:01.582Z,4
2017-01-18T06:56:13.232Z,4
2017-01-18T06:57:24.640Z,8
2017-01-18T06:58:36.245Z,8
2017-01-18T06:59:47.648Z,12
2017-01-18T07:00:59.249Z,12
2017-01-18T07:02:10.701Z,16
2017-01-18T07:03:22.110Z,20
2017-01-18T07:04:33.511Z,20
2017-01-18T07:05:44.914Z,24
2017-01-18T07:06:56.517Z,24
2017-01-18T07:08:07.969Z,32
2017-01-18T07:09:19.378Z,36
2017-01-18T07:10:30.766Z,40
2017-01-18T07:11:42.170Z,48
2017-01-18T07:12:53.804Z,60
2017-01-18T07:14:05.260Z,68
2017-01-18T07:15:16.867Z,76
2017-01-18T07:16:28.270Z,92
2017-01-18T07:17:39.674Z,100
2017-01-18T07:18:51.082Z,112
2017-01-18T07:20:02.536Z,128
2017-01-18T07:21:13.948Z,144
2017-01-18T07:22:25.351Z,164
2017-01-18T07:23:36.749Z,184
2017-01-18T07:24:48.139Z,196
2017-01-18T07:25:59.791Z,216
2017-01-18T07:27:11.196Z,244
2017-01-18T07:28:22.597Z,276
2017-01-18T07:29:34.000Z,308
2017-01-18T07:30:45.405Z,336
2017-01-18T07:31:56.855Z,364
2017-01-18T07:33:08.275Z,396
2017-01-18T07:34:19.673Z,440
2017-01-18T07:35:31.083Z,496
2017-01-18T07:36:42.495Z,540
2017-01-18T07:37:53.954Z,568
2017-01-18T07:39:05.358Z,604
2017-01-18T07:40:16.768Z,652
2017-01-18T07:41:28.183Z,700
2017-01-18T07:42:39.586Z,752
2017-01-18T07:43:51.242Z,832
2017-01-18T07:45:02.641Z,952
2017-01-18T07:46:14.043Z,1132
2017-01-18T07:47:25.448Z,1324
2017-01-18T07:48:36.859Z,1456
2017-01-18T07:49:48.308Z,1484
2017-01-18T07:50:59.708Z,1408
2017-01-18T07:52:11.109Z,1312
2017-01-18T07:53:22.508Z,1308
2017-01-18T07:54:33.913Z,1384
2017-01-18T07:55:45.363Z,1456
2017-01-18T07:56:56.961Z,1580
2017-01-18T07:58:08.371Z,1732
2017-01-18T07:59:19.783Z,1888
2017-01-18T08:00:31.192Z,2108
2017-01-18T08:01:42.634Z,2312
2017-01-18T08:02:54.038Z,2728
2017-01-18T08:04:05.445Z,3400
2017-01-18T08:05:16.849Z,3744
2017-01-18T08:06:28.454Z,4320
2017-01-18T08:07:39.910Z,4308
2017-01-18T08:08:51.322Z,4628
2017-01-18T08:10:02.731Z,4940
2017-01-18T08:11:14.139Z,5656
2017-01-18T08:12:25.540Z,7008
2017-01-18T08:13:36.992Z,9112
2017-01-18T08:14:48.399Z,9612
2017-01-18T08:16:00.022Z,8452
2017-01-18T08:17:11.424Z,5516
2017-01-18T08:18:23.028Z,3152
2017-01-18T08:19:34.685Z,2588
2017-01-18T08:20:46.096Z,2588
2017-01-18T08:21:57.500Z,2588
2017-01-18T08:23:08.905Z,2580
2017-01-18T08:24:20.514Z,2576
2017-01-18T08:25:31.963Z,2564
2017-01-18T08:26:43.777Z,2552
2017-01-18T08:27:55.184Z,2508
2017-01-18T08:29:06.588Z,2440
2017-01-18T08:30:18.001Z,2392
2017-01-18T08:31:29.450Z,2336
2017-01-18T08:32:40.851Z,2288
2017-01-18T08:33:52.256Z,2260
2017-01-18T08:35:03.661Z,2240
2017-01-18T08:36:15.069Z,2220
2017-01-18T08:37:26.530Z,2260
2017-01-18T08:38:38.140Z,2328
2017-01-18T08:39:49.540Z,2404
2017-01-18T08:41:00.952Z,2512
2017-01-18T08:42:12.558Z,2680
2017-01-18T08:43:24.014Z,2880
2017-01-18T08:44:35.418Z,3072
2017-01-18T08:45:46.835Z,3228
2017-01-18T08:46:58.238Z,3360
2017-01-18T08:48:09.655Z,3452
2017-01-18T08:49:21.107Z,3416
2017-01-18T08:50:32.921Z,3352
2017-01-18T08:51:44.316Z,3304
2017-01-18T08:52:55.929Z,3268
2017-01-18T08:54:07.324Z,3272
2017-01-18T08:55:18.802Z,3340
2017-01-18T08:56:30.402Z,3460
2017-01-18T08:57:41.798Z,3584
2017-01-18T08:58:53.231Z,3684
2017-01-18T09:00:04.634Z,3756
2017-01-18T09:01:16.100Z,3764
2017-01-18T09:02:27.498Z,3732
2017-01-18T09:03:38.922Z,3628
2017-01-18T09:04:50.327Z,3540
2017-01-18T09:06:01.735Z,3472
2017-01-18T09:07:13.190Z,3460
2017-01-18T09:08:24.597Z,3456
2017-01-18T09:09:36.208Z,3492
2017-01-18T09:10:47.619Z,3536
2017-01-18T09:11:59.233Z,3592
2017-01-18T09:13:10.695Z,3688
2017-01-18T09:14:22.110Z,3808
2017-01-18T09:15:33.510Z,3936
2017-01-18T09:16:44.911Z,4064
2017-01-18T09:17:56.308Z,4152
2017-01-18T09:19:07.962Z,4208
2017-01-18T09:20:19.369Z,4240
2017-01-18T09:21:30.768Z,4260
2017-01-18T09:22:42.177Z,4320
2017-01-18T09:23:53.579Z,4404
2017-01-18T09:25:05.033Z,4524
2017-01-18T09:26:16.469Z,4648
2017-01-18T09:27:27.873Z,4768
2017-01-18T09:28:39.273Z,4928
2017-01-18T09:29:50.880Z,5148
2017-01-18T09:31:02.341Z,5304
2017-01-18T09:32:13.747Z,5392
2017-01-18T09:33:25.148Z,5408
2017-01-18T09:34:36.563Z,5380
2017-01-18T09:35:47.967Z,5340
2017-01-18T09:36:59.414Z,5308
2017-01-18T09:38:10.815Z,5204
2017-01-18T09:39:22.413Z,5092
2017-01-18T09:40:33.821Z,5044
2017-01-18T09:41:45.235Z,5072
2017-01-18T09:42:56.691Z,5132
2017-01-18T09:44:08.709Z,5256
2017-01-18T09:45:20.116Z,5440
2017-01-18T09:46:31.717Z,5640
2017-01-18T09:47:43.121Z,5852
2017-01-18T09:48:54.584Z,6052
2017-01-18T09:50:05.997Z,6204
2017-01-18T09:51:17.428Z,6256
2017-01-18T09:52:28.834Z,6236
2017-01-18T09:53:40.273Z,6216
2017-01-18T09:54:51.720Z,6200
2017-01-18T09:56:03.123Z,6220
2017-01-18T09:57:14.527Z,6276
2017-01-18T09:58:25.934Z,6412
2017-01-18T09:59:37.344Z,6600
2017-01-18T10:00:48.831Z,6764
2017-01-18T10:02:00.259Z,6820
2017-01-18T10:03:11.647Z,6896
2017-01-18T10:04:23.056Z,7056
2017-01-18T10:05:34.464Z,7136
2017-01-18T10:06:45.926Z,7216
2017-01-18T10:07:57.336Z,7320
2017-01-18T10:09:08.742Z,7308
2017-01-18T10:10:20.346Z,8472
2017-01-18T10:11:31.747Z,7824
2017-01-18T10:12:43.211Z,7688
2017-01-18T10:13:54.643Z,7780
2017-01-18T10:15:06.051Z,7992
2017-01-18T10:16:18.061Z,8116
2017-01-18T10:17:29.459Z,8276
2017-01-18T10:18:40.916Z,8376
2017-01-18T10:19:52.318Z,8836
2017-01-18T10:21:03.715Z,9380
2017-01-18T10:22:15.327Z,9768
2017-01-18T10:23:26.767Z,9748
2017-01-18T10:24:38.229Z,9276
2017-01-18T10:25:50.041Z,9004
2017-01-18T10:27:01.444Z,8876
2017-01-18T10:28:12.844Z,8612
2017-01-18T10:29:24.249Z,8428
2017-01-18T10:30:35.716Z,8552
2017-01-18T10:31:47.123Z,9056
2017-01-18T10:32:58.522Z,9848
2017-01-18T10:34:09.934Z,10864
2017-01-18T10:35:21.350Z,12024
2017-01-18T10:36:32.804Z,13268
2017-01-18T10:37:44.218Z,14324
2017-01-18T10:38:55.627Z,14732
2017-01-18T10:40:07.041Z,14848
2017-01-18T10:41:18.448Z,13232
2017-01-18T10:42:29.903Z,12248
2017-01-18T10:43:41.308Z,11952
2017-01-18T10:44:52.707Z,12332
2017-01-18T10:46:04.118Z,21568
2017-01-18T10:47:15.530Z,12436
2017-01-18T10:48:27.393Z,14476
2017-01-18T10:49:39.007Z,15840
2017-01-18T10:50:50.417Z,10956
2017-01-18T10:52:01.817Z,25568
2017-01-18T10:53:13.458Z,33216
2017-01-18T10:54:24.911Z,54752
2017-01-18T10:55:36.514Z,52160
2017-01-18T10:56:47.928Z,49152
2017-01-18T10:57:59.336Z,30464
2017-01-18T10:59:10.774Z,51232
2017-01-18T11:00:22.234Z,46112
2017-01-18T11:01:33.654Z,23808
2017-01-18T11:02:45.053Z,32256
2017-01-18T11:03:56.472Z,32128
2017-01-18T11:05:07.887Z,23456
2017-01-18T11:06:19.353Z,43296
2017-01-18T11:07:30.768Z,43904
2017-01-18T11:08:42.189Z,24416
2017-01-18T11:09:53.596Z,20480
2017-01-18T11:11:05.001Z,21984
2017-01-18T11:12:16.463Z,18400
2017-01-18T11:13:27.873Z,17600
2017-01-18T11:14:39.281Z,16512
2017-01-18T11:15:50.696Z,28576
2017-01-18T11:17:02.103Z,29856
2017-01-18T11:18:13.601Z,23008
2017-01-18T11:19:25.037Z,21344
2017-01-18T11:20:36.456Z,18464
2017-01-18T11:21:47.873Z,16192
2017-01-18T11:22:59.505Z,13232
2017-01-18T11:24:10.970Z,13176
2017-01-18T11:25:22.379Z,12996
2017-01-18T11:26:33.991Z,14212
2017-01-18T11:27:45.397Z,16864
2017-01-18T11:28:56.818Z,17312
2017-01-18T11:30:08.309Z,18240
2017-01-18T11:31:19.916Z,24480
2017-01-18T11:33:02.851Z,23200
2017-01-18T11:34:14.260Z,30752
2017-01-18T11:35:25.720Z,21664
2017-01-18T11:36:37.131Z,16928
2017-01-18T11:37:48.756Z,16096
2017-01-18T11:39:00.174Z,18144
2017-01-18T11:40:11.811Z,16576
2017-01-18T11:41:23.266Z,15648
2017-01-18T11:42:34.677Z,13412
2017-01-18T11:43:46.092Z,14104
2017-01-18T11:44:57.504Z,15936
2017-01-18T11:46:08.914Z,17312
2017-01-18T11:47:20.375Z,14476
2017-01-18T11:48:31.789Z,16128
2017-01-18T11:49:43.200Z,21920
2017-01-18T11:50:54.609Z,16896
2017-01-18T11:52:06.015Z,13860
2017-01-18T11:53:17.476Z,13508
2017-01-18T11:54:28.880Z,11104
2017-01-18T11:55:40.295Z,10964
2017-01-18T11:56:51.902Z,10776
2017-01-18T11:58:03.316Z,10132
2017-01-18T11:59:14.779Z,10336
2017-01-18T12:00:26.395Z,12168
2017-01-18T12:01:38.008Z,21824
2017-01-18T12:02:49.413Z,21024
2017-01-18T12:04:00.820Z,16448
2017-01-18T12:05:12.691Z,20928
2017-01-18T12:06:24.101Z,13364
2017-01-18T12:07:35.508Z,13572
2017-01-18T12:08:46.915Z,20032
2017-01-18T12:09:58.321Z,44672
2017-01-18T12:11:09.810Z,41984
2017-01-18T12:12:21.629Z,40096
2017-01-18T12:13:33.039Z,35296
2017-01-18T12:14:44.649Z,31264
2017-01-18T12:15:56.064Z,23520
2017-01-18T12:17:07.551Z,16032
2017-01-18T12:18:18.964Z,15476
2017-01-18T12:19:30.567Z,12416
2017-01-18T12:20:41.974Z,9928
2017-01-18T12:21:53.398Z,8416
2017-01-18T12:23:04.858Z,7824
2017-01-18T12:24:16.464Z,7600
2017-01-18T12:25:27.882Z,7904
2017-01-18T12:26:39.290Z,8180
2017-01-18T12:27:50.701Z,8376
2017-01-18T12:29:02.168Z,8804
2017-01-18T12:30:13.778Z,9612
2017-01-18T12:31:25.180Z,10568
2017-01-18T12:32:36.592Z,11192
2017-01-18T12:33:48.001Z,12064
2017-01-18T12:34:59.465Z,10896
2017-01-18T12:36:10.872Z,9980
2017-01-18T12:37:22.287Z,7740
2017-01-18T12:38:33.901Z,6540
2017-01-18T12:39:45.511Z,6104
2017-01-18T12:40:56.969Z,5840
2017-01-18T12:42:08.380Z,5596
2017-01-18T12:43:19.783Z,5344
2017-01-18T12:44:31.189Z,5108
2017-01-18T12:45:42.592Z,4932
2017-01-18T12:46:54.049Z,4856
2017-01-18T12:48:05.458Z,4988
2017-01-18T12:49:16.862Z,5224
2017-01-18T12:50:28.271Z,5424
2017-01-18T12:51:39.707Z,5608
2017-01-18T12:52:51.164Z,6000
2017-01-18T12:54:02.768Z,6024
2017-01-18T12:55:14.180Z,6348
2017-01-18T12:56:25.583Z,6676
2017-01-18T12:57:36.993Z,7728
2017-01-18T12:58:48.454Z,8084
2017-01-18T12:59:59.889Z,9024
2017-01-18T13:01:11.329Z,15680
2017-01-18T13:02:22.738Z,11996
2017-01-18T13:03:34.140Z,7284
2017-01-18T13:04:45.589Z,7032
2017-01-18T13:05:56.997Z,5660
2017-01-18T13:07:08.404Z,5396
2017-01-18T13:08:19.804Z,5612
2017-01-18T13:09:31.211Z,6064
2017-01-18T13:10:42.675Z,6460
2017-01-18T13:11:54.082Z,6844
2017-01-18T13:13:05.492Z,7208
2017-01-18T13:14:16.904Z,7420
2017-01-18T13:15:28.311Z,7616
2017-01-18T13:16:39.766Z,7856
2017-01-18T13:17:51.180Z,8340
2017-01-18T13:19:02.816Z,8356
2017-01-18T13:20:14.225Z,8392
2017-01-18T13:21:25.625Z,8536
2017-01-18T13:22:37.076Z,8616
2017-01-18T13:23:48.486Z,10088
2017-01-18T13:24:59.883Z,9828
2017-01-18T13:26:11.301Z,9212
2017-01-18T13:27:22.707Z,7744
2017-01-18T13:28:34.170Z,6812
2017-01-18T13:29:45.580Z,5964
2017-01-18T13:30:56.991Z,5696
2017-01-18T13:32:08.429Z,6216
2017-01-18T13:33:19.834Z,5344
2017-01-18T13:34:31.291Z,5144
2017-01-18T13:35:42.695Z,4984
2017-01-18T13:36:54.101Z,4788
2017-01-18T13:38:05.514Z,4640
2017-01-18T13:39:17.117Z,4448
2017-01-18T13:40:28.607Z,4228
2017-01-18T13:41:40.013Z,4040
2017-01-18T13:42:51.426Z,3884
2017-01-18T13:44:02.827Z,3768
2017-01-18T13:45:14.429Z,3692
2017-01-18T13:46:25.891Z,3648
2017-01-18T13:47:37.503Z,3612
2017-01-18T13:48:48.909Z,3592
2017-01-18T13:50:00.317Z,3628
2017-01-18T13:51:11.725Z,3708
2017-01-18T13:52:23.382Z,3848
2017-01-18T13:53:34.827Z,4004
2017-01-18T13:54:46.227Z,4164
2017-01-18T13:55:57.643Z,4324
2017-01-18T13:57:09.253Z,4452
2017-01-18T13:58:20.714Z,4560
2017-01-18T13:59:32.112Z,4652
2017-01-18T14:00:43.524Z,4720
2017-01-18T14:01:54.935Z,4688
2017-01-18T14:03:06.337Z,4560
2017-01-18T14:04:17.793Z,4384
2017-01-18T14:05:29.405Z,4244
2017-01-18T14:06:40.813Z,4200
2017-01-18T14:07:52.228Z,4032
2017-01-18T14:09:03.640Z,3872
2017-01-18T14:10:15.099Z,3620
2017-01-18T14:11:26.498Z,3444
2017-01-18T14:12:38.116Z,3168
2017-01-18T14:13:49.527Z,3000
2017-01-18T14:15:00.930Z,2904
2017-01-18T14:16:12.390Z,2824
2017-01-18T14:17:23.998Z,2764
2017-01-18T14:18:35.395Z,2752
2017-01-18T14:19:47.003Z,2928
2017-01-18T14:20:58.406Z,3528
2017-01-18T14:22:10.056Z,3348
2017-01-18T14:23:21.469Z,3152
2017-01-18T14:24:32.878Z,2720
2017-01-18T14:25:44.294Z,2648
2017-01-18T14:26:55.908Z,2616
2017-01-18T14:28:07.362Z,2592
2017-01-18T14:29:18.775Z,2572
2017-01-18T14:30:30.183Z,2540
2017-01-18T14:31:41.794Z,2500
2017-01-18T14:32:53.205Z,2460
2017-01-18T14:34:04.664Z,2428
2017-01-18T14:35:16.276Z,2388
2017-01-18T14:36:27.687Z,2352
2017-01-18T14:37:39.492Z,2336
2017-01-18T14:38:50.900Z,2332
2017-01-18T14:40:02.354Z,2312
2017-01-18T14:41:13.754Z,2264
2017-01-18T14:42:25.160Z,2180
2017-01-18T14:43:36.567Z,2076
2017-01-18T14:44:47.972Z,1976
2017-01-18T14:45:59.627Z,1896
2017-01-18T14:47:11.027Z,1832
2017-01-18T14:48:22.441Z,1760
2017-01-18T14:49:34.054Z,1684
2017-01-18T14:50:45.459Z,1620
2017-01-18T14:51:56.924Z,1568
2017-01-18T14:53:08.330Z,1524
2017-01-18T14:54:19.742Z,1480
2017-01-18T14:55:31.154Z,1440
2017-01-18T14:56:42.559Z,1404
2017-01-18T14:57:54.019Z,1364
2017-01-18T14:59:05.625Z,1340
2017-01-18T15:00:17.038Z,1312
2017-01-18T15:01:28.443Z,1288
2017-01-18T15:02:39.852Z,1256
2017-01-18T15:03:51.305Z,1220
2017-01-18T15:05:02.905Z,1188
2017-01-18T15:06:14.508Z,1148
2017-01-18T15:07:25.949Z,1112
2017-01-18T15:08:37.558Z,1080
2017-01-18T15:09:49.019Z,1048
2017-01-18T15:11:00.629Z,1024
2017-01-18T15:12:12.043Z,1004
2017-01-18T15:13:23.650Z,984
2017-01-18T15:14:35.072Z,956
2017-01-18T15:15:46.527Z,928
2017-01-18T15:16:57.933Z,888
2017-01-18T15:18:09.364Z,852
2017-01-18T15:19:20.769Z,812
2017-01-18T15:20:32.180Z,768
2017-01-18T15:21:43.634Z,724
2017-01-18T15:22:55.039Z,688
2017-01-18T15:24:06.644Z,648
2017-01-18T15:25:18.054Z,612
2017-01-18T15:26:29.657Z,576
2017-01-18T15:27:41.119Z,540
2017-01-18T15:28:52.531Z,504
2017-01-18T15:30:03.941Z,468
2017-01-18T15:31:15.351Z,436
2017-01-18T15:32:26.760Z,404
2017-01-18T15:33:38.220Z,380
2017-01-18T15:34:49.628Z,352
2017-01-18T15:36:01.266Z,328
2017-01-18T15:37:12.696Z,308
2017-01-18T15:38:24.105Z,288
2017-01-18T15:39:35.561Z,268
2017-01-18T15:40:46.968Z,248
2017-01-18T15:41:58.375Z,232
2017-01-18T15:43:09.777Z,220
2017-01-18T15:44:21.183Z,204
2017-01-18T15:45:32.643Z,192
2017-01-18T15:47:53.785Z,164
2017-01-18T15:49:05.194Z,152
2017-01-18T15:50:16.604Z,140
2017-01-18T15:51:28.058Z,132
2017-01-18T15:52:39.466Z,124
2017-01-18T15:53:51.071Z,116
2017-01-18T15:55:02.477Z,100
2017-01-18T15:56:13.902Z,92
2017-01-18T15:57:25.361Z,80
2017-01-18T15:58:36.766Z,72
2017-01-18T15:59:48.173Z,64
2017-01-18T16:00:59.587Z,56
2017-01-18T16:02:10.985Z,52
2017-01-18T16:03:22.437Z,48
2017-01-18T16:04:33.880Z,40
2017-01-18T16:05:45.281Z,36
2017-01-18T16:06:56.893Z,32
2017-01-18T16:08:08.320Z,24
2017-01-18T16:09:19.772Z,24
2017-01-18T16:10:31.180Z,20
2017-01-18T16:11:42.586Z,20
2017-01-18T16:12:53.996Z,12
2017-01-18T16:14:05.399Z,12
2017-01-18T16:15:16.861Z,12
2017-01-18T16:16:28.255Z,8
2017-01-18T16:17:39.661Z,8
2017-01-18T16:18:51.096Z,4
2017-01-18T16:20:02.505Z,4
2017-01-18T16:21:13.962Z,4
2017-01-18T16:22:25.361Z,4
2017-01-18T16:23:36.966Z,0
2017-01-18T16:24:48.369Z,4
2017-01-18T16:25:59.769Z,0
2017-01-18T16:27:11.427Z,0
2017-01-18T16:28:22.840Z,4
2017-01-18T16:29:34.258Z,0
2017-01-18T16:30:45.661Z,0
2017-01-18T16:31:57.061Z,0
2017-01-18T16:33:08.518Z,0
2017-01-18T16:34:19.943Z,0
2017-01-18T16:35:31.349Z,0
2017-01-18T16:36:42.749Z,0
2017-01-18T16:37:54.159Z,0